Time,TemperatureF,DewpointF,PressureIn,WindDirection,WindDirectionDegrees,WindSpeedMPH,WindSpeedGustMPH,Humidity,HourlyPrecipIn,Conditions,Clouds,dailyrainin,SolarRadiationWatts/m^2,SoftwareType,DateUTC
2013-02-22 00:11:00,12.0,7.0,-100.00,NNE,33,0.0,2.0,80,-99.99,,,0.12,1.000000,,2013-02-22 08:11:00,
2013-02-22 02:11:00,12.0,8.0,-100.00,NNE,12,1.0,2.0,82,-99.99,,,0.12,1.000000,,2013-02-22 10:11:00,
2013-02-22 02:21:00,12.0,8.0,-100.00,NNE,12,1.0,2.0,82,-99.99,,,0.12,1.000000,,2013-02-22 10:21:00,
2013-02-22 04:21:00,11.0,7.0,-100.00,WNW,299,0.0,2.0,83,-99.99,,,0.12,1.000000,,2013-02-22 12:21:00,
2013-02-22 06:11:00,9.0,4.0,-100.00,West,268,0.0,3.0,81,-99.99,,,0.12,1.000000,,2013-02-22 14:11:00,
2013-02-22 07:11:00,8.0,3.0,-100.00,SSE,162,0.0,2.0,81,-99.99,,,-99.99,2.000000,,2013-02-22 15:11:00,
2013-02-22 08:51:00,32.0,15.0,-100.00,SSE,161,2.0,3.0,50,-99.99,,,0.13,281.000000,,2013-02-22 16:51:00,
2013-02-22 09:21:00,32.0,15.0,-100.00,SSE,161,2.0,3.0,50,-99.99,,,0.13,281.000000,,2013-02-22 17:21:00,
2013-02-22 09:31:00,32.0,15.0,-100.00,SSE,161,2.0,3.0,50,-99.99,,,0.13,281.000000,,2013-02-22 17:31:00,
2013-02-22 09:42:00,32.0,15.0,-100.00,SSE,161,2.0,3.0,50,-99.99,,,0.13,281.000000,,2013-02-22 17:42:00,
2013-02-22 09:51:00,44.0,16.0,-100.00,SSE,154,2.0,3.0,32,0.00,,,0.05,461.000000,,2013-02-22 17:51:00,
2013-02-22 10:22:00,44.0,16.0,-100.00,SSE,154,2.0,3.0,32,0.00,,,0.05,461.000000,,2013-02-22 18:22:00,
2013-02-22 10:42:00,44.0,16.0,-100.00,SSE,154,2.0,3.0,32,0.00,,,0.05,461.000000,,2013-02-22 18:42:00,
2013-02-22 10:51:00,49.0,15.0,-100.00,ESE,123,2.0,5.0,25,-99.99,,,0.02,619.000000,,2013-02-22 18:51:00,
2013-02-22 11:11:00,49.0,15.0,-100.00,ESE,123,2.0,5.0,25,-99.99,,,0.02,619.000000,,2013-02-22 19:11:00,
2013-02-22 11:41:00,49.0,15.0,-100.00,ESE,123,2.0,5.0,25,-99.99,,,0.02,619.000000,,2013-02-22 19:41:00,
2013-02-22 11:51:00,48.0,10.0,-100.00,North,350,4.0,10.0,21,0.00,,,0.01,703.000000,,2013-02-22 19:51:00,
2013-02-22 12:11:00,48.0,10.0,-100.00,North,350,4.0,10.0,21,0.00,,,0.01,703.000000,,2013-02-22 20:11:00,
2013-02-22 12:21:00,48.0,10.0,-100.00,North,350,4.0,10.0,21,0.00,,,0.01,703.000000,,2013-02-22 20:21:00,
2013-02-22 12:31:00,48.0,10.0,-100.00,North,350,4.0,10.0,21,0.00,,,0.01,703.000000,,2013-02-22 20:31:00,
2013-02-22 12:41:00,48.0,10.0,-100.00,North,350,4.0,10.0,21,0.00,,,0.01,703.000000,,2013-02-22 20:41:00,
2013-02-22 12:51:00,49.0,6.0,-100.00,North,359,4.0,11.0,17,0.00,,,0.01,720.000000,,2013-02-22 20:51:00,
2013-02-22 13:11:00,49.0,6.0,-100.00,North,359,4.0,11.0,17,0.00,,,0.01,720.000000,,2013-02-22 21:11:00,
2013-02-22 13:21:00,49.0,6.0,-100.00,North,359,4.0,11.0,17,0.00,,,0.01,720.000000,,2013-02-22 21:21:00,
2013-02-22 13:31:00,49.0,6.0,-100.00,North,359,4.0,11.0,17,0.00,,,0.01,720.000000,,2013-02-22 21:31:00,
2013-02-22 13:41:00,49.0,6.0,-100.00,North,359,4.0,11.0,17,0.00,,,0.01,720.000000,,2013-02-22 21:41:00,
2013-02-22 14:11:00,50.0,1.0,-100.00,East,84,3.0,9.0,13,0.00,,,0.01,671.000000,,2013-02-22 22:11:00,
2013-02-22 14:21:00,50.0,1.0,-100.00,East,84,3.0,9.0,13,0.00,,,0.01,671.000000,,2013-02-22 22:21:00,
2013-02-22 15:11:00,49.0,5.0,-100.00,North,352,3.0,8.0,16,0.00,,,0.01,531.000000,,2013-02-22 23:11:00,
2013-02-22 15:21:00,49.0,5.0,-100.00,North,352,3.0,8.0,16,0.00,,,0.01,531.000000,,2013-02-22 23:21:00,
2013-02-22 15:31:00,49.0,5.0,-100.00,North,352,3.0,8.0,16,0.00,,,0.01,531.000000,,2013-02-22 23:31:00,
2013-02-22 15:51:00,50.0,17.0,-100.00,SSW,192,4.0,9.0,27,0.00,,,0.01,227.000000,,2013-02-22 23:51:00,
2013-02-22 16:21:00,50.0,17.0,-100.00,SSW,192,4.0,9.0,27,0.00,,,0.01,227.000000,,2013-02-23 00:21:00,
2013-02-22 16:31:00,50.0,17.0,-100.00,SSW,192,4.0,9.0,27,0.00,,,0.01,227.000000,,2013-02-23 00:31:00,
2013-02-22 16:41:00,50.0,17.0,-100.00,SSW,192,4.0,9.0,27,0.00,,,0.01,227.000000,,2013-02-23 00:41:00,
2013-02-22 16:51:00,43.0,25.0,-100.00,SSE,151,5.0,9.0,48,0.00,,,0.01,132.000000,,2013-02-23 00:51:00,
2013-02-22 17:11:00,43.0,25.0,-100.00,SSE,151,5.0,9.0,48,0.00,,,0.01,132.000000,,2013-02-23 01:11:00,
2013-02-22 17:21:00,43.0,25.0,-100.00,SSE,151,5.0,9.0,48,0.00,,,0.01,132.000000,,2013-02-23 01:21:00,
2013-02-22 17:31:00,43.0,25.0,-100.00,SSE,151,5.0,9.0,48,0.00,,,0.01,132.000000,,2013-02-23 01:31:00,
2013-02-22 17:41:00,43.0,25.0,-100.00,SSE,151,5.0,9.0,48,0.00,,,0.01,132.000000,,2013-02-23 01:41:00,
2013-02-22 17:51:00,37.0,25.0,-100.00,SSW,198,3.0,10.0,62,0.00,,,0.01,19.000000,,2013-02-23 01:51:00,
2013-02-22 18:11:00,37.0,25.0,-100.00,SSW,198,3.0,10.0,62,0.00,,,0.01,19.000000,,2013-02-23 02:11:00,
2013-02-22 18:21:00,37.0,25.0,-100.00,SSW,198,3.0,10.0,62,0.00,,,0.01,19.000000,,2013-02-23 02:21:00,
2013-02-22 18:31:00,37.0,25.0,-100.00,SSW,198,3.0,10.0,62,0.00,,,0.01,19.000000,,2013-02-23 02:31:00,
2013-02-22 18:41:00,37.0,25.0,-100.00,SSW,198,3.0,10.0,62,0.00,,,0.01,19.000000,,2013-02-23 02:41:00,
2013-02-22 18:51:00,36.0,24.0,-100.00,South,178,6.0,16.0,62,0.00,,,0.01,1.000000,,2013-02-23 02:51:00,
2013-02-22 19:11:00,36.0,24.0,-100.00,South,178,6.0,16.0,62,0.00,,,0.01,1.000000,,2013-02-23 03:11:00,
2013-02-22 19:21:00,36.0,24.0,-100.00,South,178,6.0,16.0,62,0.00,,,0.01,1.000000,,2013-02-23 03:21:00,
2013-02-22 19:31:00,36.0,24.0,-100.00,South,178,6.0,16.0,62,0.00,,,0.01,1.000000,,2013-02-23 03:31:00,
2013-02-22 19:41:00,36.0,24.0,-100.00,South,178,6.0,16.0,62,0.00,,,0.01,1.000000,,2013-02-23 03:41:00,
2013-02-22 19:51:00,36.0,24.0,-100.00,SSE,154,6.0,12.0,61,0.00,,,0.01,1.000000,,2013-02-23 03:51:00,
2013-02-22 20:11:00,36.0,24.0,-100.00,SSE,154,6.0,12.0,61,0.00,,,0.01,1.000000,,2013-02-23 04:11:00,
2013-02-22 20:21:00,36.0,24.0,-100.00,SSE,154,6.0,12.0,61,0.00,,,0.01,1.000000,,2013-02-23 04:21:00,
2013-02-22 20:31:00,36.0,24.0,-100.00,SSE,154,6.0,12.0,61,0.00,,,0.01,1.000000,,2013-02-23 04:31:00,
2013-02-22 20:41:00,36.0,24.0,-100.00,SSE,154,6.0,12.0,61,0.00,,,0.01,1.000000,,2013-02-23 04:41:00,
2013-02-22 20:51:00,36.0,20.0,-100.00,SSE,159,5.0,9.0,52,0.00,,,-99.99,1.000000,,2013-02-23 04:51:00,
2013-02-22 21:12:00,36.0,20.0,-100.00,SSE,159,5.0,9.0,52,0.00,,,-99.99,1.000000,,2013-02-23 05:12:00,
2013-02-22 21:22:00,36.0,20.0,-100.00,SSE,159,5.0,9.0,52,0.00,,,-99.99,1.000000,,2013-02-23 05:22:00,
2013-02-22 21:32:00,36.0,20.0,-100.00,SSE,159,5.0,9.0,52,0.00,,,-99.99,1.000000,,2013-02-23 05:32:00,
2013-02-22 21:41:00,36.0,20.0,-100.00,SSE,159,5.0,9.0,52,0.00,,,-99.99,1.000000,,2013-02-23 05:41:00,
2013-02-22 21:51:00,35.0,21.0,-100.00,SSE,154,6.0,17.0,56,0.00,,,0.01,1.000000,,2013-02-23 05:51:00,
2013-02-22 22:11:00,35.0,21.0,-100.00,SSE,154,6.0,17.0,56,0.00,,,0.01,1.000000,,2013-02-23 06:11:00,
2013-02-22 22:22:00,35.0,21.0,-100.00,SSE,154,6.0,17.0,56,0.00,,,0.01,1.000000,,2013-02-23 06:22:00,
2013-02-22 22:31:00,35.0,21.0,-100.00,SSE,154,6.0,17.0,56,0.00,,,0.01,1.000000,,2013-02-23 06:31:00,
2013-02-22 22:41:00,35.0,21.0,-100.00,SSE,154,6.0,17.0,56,0.00,,,0.01,1.000000,,2013-02-23 06:41:00,
2013-02-22 22:51:00,35.0,23.0,-100.00,SSE,164,6.0,12.0,62,0.00,,,0.01,1.000000,,2013-02-23 06:51:00,
2013-02-22 23:21:00,35.0,23.0,-100.00,SSE,164,6.0,12.0,62,0.00,,,0.01,1.000000,,2013-02-23 07:21:00,
2013-02-22 23:31:00,35.0,23.0,-100.00,SSE,164,6.0,12.0,62,0.00,,,0.01,1.000000,,2013-02-23 07:31:00,
2013-02-22 23:41:00,35.0,23.0,-100.00,SSE,164,6.0,12.0,62,0.00,,,0.01,1.000000,,2013-02-23 07:41:00,
2013-02-22 23:51:00,34.0,22.0,-100.00,South,178,7.0,19.0,61,0.00,,,0.01,1.000000,,2013-02-23 07:51:00,